Time;durP1;ratioP1;P1;durP2;ratioP2;P2;SDS_P1;SDS_P2;PMS_P1;PMS_P2;Temp;Humidity;BMP_temperature;BMP_pressure;BME280_temperature;BME280_humidity;BME280_pressure;Samples;Min_cycle;Max_cycle;Signal;HPM_P1;HPM_P2
2022/06/26 00:00:37;;;;;;;0.55;0.55;;;;;;;21.89;56.39;100581.84;5209379;28;20084;-80
2022/06/26 00:03:08;;;;;;;1.00;0.70;;;;;;;21.86;56.45;100588.22;5203564;28;20053;-81
2022/06/26 00:05:39;;;;;;;2.72;0.75;;;;;;;21.84;56.71;100595.53;5158804;28;20143;-80
2022/06/26 00:08:22;;;;;;;0.60;0.60;;;;;;;21.82;56.78;100597.47;5194165;28;20033;-81
2022/06/26 00:10:53;;;;;;;1.02;0.60;;;;;;;21.81;56.85;100591.28;5203057;28;20045;-81
2022/06/26 00:13:23;;;;;;;2.60;0.52;;;;;;;21.81;56.80;100590.41;5188181;28;20041;-81
2022/06/26 00:15:54;;;;;;;6.30;1.25;;;;;;;21.78;56.88;100601.31;5201562;28;20036;-80
2022/06/26 00:18:25;;;;;;;1.65;0.90;;;;;;;21.75;56.71;100620.28;5185893;28;20029;-81
2022/06/26 00:20:56;;;;;;;0.85;0.40;;;;;;;21.72;56.77;100612.47;5198354;28;20054;-80
2022/06/26 00:23:27;;;;;;;0.63;0.60;;;;;;;21.72;57.12;100608.00;5176598;28;20064;-80
2022/06/26 00:25:57;;;;;;;0.52;0.52;;;;;;;21.74;56.85;100615.88;5192786;28;20072;-81
2022/06/26 00:28:28;;;;;;;0.80;0.30;;;;;;;21.73;56.83;100630.22;5186451;28;20572;-82
2022/06/26 00:31:00;;;;;;;0.52;0.50;;;;;;;21.69;56.94;100646.44;5188073;28;20584;-80
2022/06/26 00:33:31;;;;;;;0.40;0.40;;;;;;;21.65;57.10;100655.66;5171116;28;20508;-81
2022/06/26 00:36:01;;;;;;;0.32;0.32;;;;;;;21.63;57.23;100657.59;5201770;28;20056;-80
2022/06/26 00:38:42;;;;;;;0.38;0.38;;;;;;;21.64;56.99;100653.13;5199591;28;20061;-81
2022/06/26 00:41:12;;;;;;;0.50;0.50;;;;;;;21.64;57.20;100659.31;5187571;28;20053;-81
2022/06/26 00:43:43;;;;;;;0.47;0.47;;;;;;;21.63;57.04;100662.09;5187952;28;20341;-81
2022/06/26 00:46:14;;;;;;;0.45;0.45;;;;;;;21.59;57.17;100672.16;5186897;28;20068;-81
2022/06/26 00:48:44;;;;;;;0.40;0.40;;;;;;;21.61;58.13;100659.53;5186401;28;20045;-80
2022/06/26 00:51:15;;;;;;;0.30;0.30;;;;;;;21.58;57.39;100664.25;5203066;28;20529;-81
2022/06/26 00:53:49;;;;;;;1.45;0.68;;;;;;;21.55;56.92;100657.28;5200156;28;20139;-80
2022/06/26 00:56:19;;;;;;;0.85;0.80;;;;;;;21.55;57.23;100659.94;5181239;28;20033;-81
2022/06/26 00:58:53;;;;;;;0.25;0.25;;;;;;;21.53;57.12;100657.41;5173674;28;20029;-80
2022/06/26 01:01:23;;;;;;;0.47;0.47;;;;;;;21.48;57.52;100658.72;5191015;28;20037;-79
2022/06/26 01:03:56;;;;;;;0.88;0.88;;;;;;;21.48;57.27;100664.06;5204414;28;20091;-80
2022/06/26 01:06:27;;;;;;;;;;;;;;;21.44;57.28;100657.25;5187824;28;20092;-81
2022/06/26 01:08:58;;;;;;;0.65;0.57;;;;;;;21.48;57.44;100656.91;5199681;28;20011;-80
2022/06/26 01:11:29;;;;;;;1.15;1.00;;;;;;;21.43;60.93;100660.88;5212592;28;20061;-80
2022/06/26 01:14:00;;;;;;;0.45;0.45;;;;;;;21.43;61.70;100674.22;5190442;28;20108;-80
2022/06/26 01:16:33;;;;;;;2.17;1.67;;;;;;;21.37;61.58;100671.03;5186481;28;20106;-80
2022/06/26 01:19:15;;;;;;;;;;;;;;;21.41;60.00;100663.63;5184826;28;20025;-80
2022/06/26 01:21:49;;;;;;;0.63;0.63;;;;;;;21.33;58.66;100674.03;5187431;28;19924;-80
2022/06/26 01:24:20;;;;;;;0.77;0.60;;;;;;;21.32;59.27;100691.03;5182219;28;20289;-80
2022/06/26 01:26:51;;;;;;;7.47;1.75;;;;;;;21.29;58.95;100692.09;5204693;28;20068;-80
2022/06/26 01:29:21;;;;;;;0.65;0.65;;;;;;;21.28;59.35;100693.03;5203037;28;20033;-80
2022/06/26 01:31:52;;;;;;;0.43;0.43;;;;;;;21.28;58.73;100705.53;5185513;28;20036;-80
2022/06/26 01:34:23;;;;;;;1.35;1.00;;;;;;;21.21;59.11;100703.34;5221688;28;20401;-80
2022/06/26 01:36:54;;;;;;;0.82;0.82;;;;;;;21.17;58.54;100703.66;5201281;28;20063;-80
2022/06/26 01:39:26;;;;;;;0.93;0.93;;;;;;;21.15;58.34;100692.25;5195923;28;20033;-80
2022/06/26 01:41:57;;;;;;;1.02;0.93;;;;;;;21.11;58.46;100693.44;5192736;28;20036;-80
2022/06/26 01:44:28;;;;;;;0.77;0.35;;;;;;;21.11;58.19;100691.59;5178376;28;20059;-80
2022/06/26 01:47:02;;;;;;;1.23;1.13;;;;;;;21.06;58.54;100681.28;5211665;28;20025;-80
2022/06/26 01:49:33;;;;;;;0.50;0.50;;;;;;;21.05;58.43;100694.72;5217052;28;20044;-80
2022/06/26 01:52:04;;;;;;;1.48;0.85;;;;;;;21.03;58.37;100700.16;5212712;28;20100;-80
2022/06/26 01:54:40;;;;;;;0.52;0.52;;;;;;;21.03;58.17;100705.50;5210140;28;20505;-80
2022/06/26 01:57:11;;;;;;;0.55;0.55;;;;;;;21.01;58.44;100720.78;5199289;28;20041;-80
2022/06/26 01:59:42;;;;;;;0.73;0.73;;;;;;;21.01;59.17;100727.91;5175063;28;20645;-80
2022/06/26 02:02:13;;;;;;;0.30;0.30;;;;;;;20.98;58.47;100726.31;5186589;28;20505;-80
2022/06/26 02:04:44;;;;;;;0.60;0.60;;;;;;;20.95;58.61;100723.84;5198994;28;20116;-80
2022/06/26 02:07:14;;;;;;;0.75;0.68;;;;;;;20.98;60.60;100720.13;5202879;28;20033;-80
2022/06/26 02:15:28;;;;;;;0.85;0.75;;;;;;;20.85;59.52;100693.50;5216931;28;20068;-80
2022/06/26 02:17:59;;;;;;;0.40;0.40;;;;;;;20.84;59.29;100695.28;5202957;28;20052;-80
2022/06/26 02:20:29;;;;;;;0.40;0.40;;;;;;;20.87;59.75;100700.41;5196170;28;20045;-80
2022/06/26 02:23:03;;;;;;;0.22;0.22;;;;;;;20.84;59.67;100702.44;5230428;28;20025;-79
2022/06/26 02:25:34;;;;;;;0.50;0.50;;;;;;;20.81;58.98;100708.84;5220273;28;20047;-79
2022/06/26 02:28:07;;;;;;;0.95;0.60;;;;;;;20.79;59.06;100701.91;5227240;28;20266;-80
2022/06/26 02:30:38;;;;;;;0.73;0.73;;;;;;;20.80;58.99;100699.16;5177774;28;20045;-80
2022/06/26 02:33:09;;;;;;;0.82;0.73;;;;;;;20.81;59.21;100708.84;5198647;28;20037;-80
2022/06/26 02:35:39;;;;;;;0.50;0.50;;;;;;;20.74;59.14;100705.75;5184797;28;20411;-80
2022/06/26 02:38:10;;;;;;;1.20;1.15;;;;;;;20.72;58.98;100710.31;5203252;28;20025;-80
2022/06/26 02:40:42;;;;;;;0.88;0.88;;;;;;;20.70;59.12;100717.53;5201164;28;20247;-80
2022/06/26 02:43:13;;;;;;;0.70;0.70;;;;;;;20.71;58.90;100713.94;5181653;28;20045;-80
2022/06/26 02:45:44;;;;;;;0.47;0.47;;;;;;;20.70;58.97;100716.72;5197694;28;20047;-80
2022/06/26 02:48:19;;;;;;;0.47;0.47;;;;;;;20.68;59.06;100706.16;5185233;28;20025;-80
2022/06/26 02:50:49;;;;;;;0.80;0.80;;;;;;;20.64;58.91;100712.66;5182609;28;20044;-80
2022/06/26 02:53:20;;;;;;;0.70;0.70;;;;;;;20.64;58.75;100707.31;5177860;28;20025;-80
2022/06/26 02:55:55;;;;;;;0.50;0.50;;;;;;;20.60;59.08;100712.00;5182573;28;20034;-80
2022/06/26 02:58:26;;;;;;;0.55;0.55;;;;;;;20.59;58.86;100722.78;5194360;28;20048;-81
2022/06/26 03:00:56;;;;;;;0.68;0.68;;;;;;;20.61;59.22;100739.53;5190648;28;20421;-80
2022/06/26 03:03:27;;;;;;;0.63;0.63;;;;;;;20.62;59.53;100740.38;5185046;28;20325;-80
2022/06/26 03:05:57;;;;;;;0.68;0.68;;;;;;;20.69;60.67;100742.53;5202659;28;20057;-80
2022/06/26 03:08:29;;;;;;;0.60;0.60;;;;;;;20.58;59.66;100755.72;5185124;28;20029;-80
2022/06/26 03:10:59;;;;;;;0.52;0.52;;;;;;;20.57;59.40;100756.69;5164174;28;20041;-80
2022/06/26 03:13:30;;;;;;;0.60;0.60;;;;;;;20.54;59.63;100767.53;5198977;28;20029;-83
2022/06/26 03:16:04;;;;;;;0.57;0.57;;;;;;;20.52;59.55;100751.66;5184233;28;20033;-85
2022/06/26 03:18:39;;;;;;;1.92;1.23;;;;;;;20.51;59.50;100743.78;5216549;28;20048;-81
2022/06/26 03:21:09;;;;;;;2.72;1.48;;;;;;;20.51;59.49;100751.78;5183587;28;20553;-80
2022/06/26 03:26:39;;;;;;;0.32;0.30;;;;;;;20.55;60.29;100775.47;5198865;28;20091;-79
2022/06/26 03:29:10;;;;;;;0.68;0.68;;;;;;;20.53;59.98;100771.19;5198622;28;20506;-79
2022/06/26 03:31:41;;;;;;;0.40;0.40;;;;;;;20.49;60.15;100767.03;5180274;28;20163;-79
2022/06/26 03:34:12;;;;;;;0.30;0.30;;;;;;;20.51;60.19;100765.13;5184209;28;20303;-79
2022/06/26 03:36:42;;;;;;;0.30;0.30;;;;;;;20.53;60.89;100768.53;5182029;28;20114;-79
2022/06/26 03:39:13;;;;;;;0.47;0.47;;;;;;;20.40;64.71;100764.03;5185311;28;20037;-79
2022/06/26 03:41:57;;;;;;;0.60;0.60;;;;;;;20.15;66.47;100764.84;5201705;28;20041;-78
2022/06/26 03:44:30;;;;;;;1.63;0.95;;;;;;;20.24;65.25;100774.00;5203934;28;20041;-78
2022/06/26 03:47:01;;;;;;;0.35;0.35;;;;;;;20.21;64.74;100777.75;5186416;28;20445;-80
2022/06/26 03:49:32;;;;;;;0.40;0.40;;;;;;;20.24;64.88;100787.34;5182860;28;20041;-79
2022/06/26 03:52:06;;;;;;;0.40;0.40;;;;;;;20.34;63.74;100796.41;5196196;28;20033;-79
2022/06/26 03:54:37;;;;;;;0.63;0.63;;;;;;;20.11;66.58;100811.25;5181629;28;20131;-79
2022/06/26 03:57:08;;;;;;;0.28;0.28;;;;;;;20.12;64.39;100805.81;5192641;28;20029;-79
2022/06/26 03:59:38;;;;;;;0.68;0.63;;;;;;;20.12;64.87;100811.16;5184474;28;20028;-78
2022/06/26 04:02:14;;;;;;;0.85;0.85;;;;;;;20.19;63.51;100808.09;5203006;28;20172;-79
2022/06/26 04:04:48;;;;;;;0.38;0.38;;;;;;;20.19;64.09;100803.63;5169624;28;20041;-79
2022/06/26 04:07:24;;;;;;;0.40;0.40;;;;;;;20.22;63.20;100797.22;5190096;28;20604;-79
2022/06/26 04:09:55;;;;;;;0.20;0.20;;;;;;;20.12;64.37;100791.66;5200439;28;20013;-78
2022/06/26 04:12:25;;;;;;;0.30;0.30;;;;;;;20.10;63.77;100786.44;5203251;28;20032;-79
2022/06/26 04:14:56;;;;;;;0.52;0.35;;;;;;;20.11;62.15;100779.31;5200705;28;20043;-79
2022/06/26 04:17:26;;;;;;;0.47;0.47;;;;;;;20.11;62.40;100781.97;5185189;28;20108;-79
2022/06/26 04:19:57;;;;;;;0.30;0.30;;;;;;;20.08;62.82;100790.19;5185195;28;20032;-79
2022/06/26 04:22:27;;;;;;;0.43;0.43;;;;;;;20.09;61.96;100794.53;5196513;28;20021;-79
2022/06/26 04:24:58;;;;;;;0.32;0.32;;;;;;;20.05;62.83;100801.88;5182849;28;20040;-79
2022/06/26 04:27:28;;;;;;;0.20;0.20;;;;;;;20.01;63.46;100811.03;5167842;28;20048;-79
2022/06/26 04:29:59;;;;;;;0.20;0.20;;;;;;;20.02;61.92;100810.06;5199579;28;20119;-79
2022/06/26 04:32:29;;;;;;;0.47;0.47;;;;;;;20.01;61.78;100810.16;5198143;28;20025;-79
2022/06/26 04:35:03;;;;;;;0.22;0.22;;;;;;;19.96;62.41;100810.44;5196415;28;20126;-79
2022/06/26 04:37:34;;;;;;;0.55;0.55;;;;;;;19.90;63.63;100822.38;5187538;28;20044;-79
2022/06/26 04:40:11;;;;;;;0.22;0.22;;;;;;;19.82;63.93;100825.50;5183558;28;20539;-79
2022/06/26 04:42:44;;;;;;;0.30;0.30;;;;;;;19.95;62.37;100828.25;5199756;28;20025;-79
2022/06/26 04:45:16;;;;;;;0.28;0.28;;;;;;;19.96;62.13;100823.78;5180229;28;20046;-79
2022/06/26 04:47:46;;;;;;;0.28;0.28;;;;;;;19.84;63.49;100820.06;5186556;28;20080;-79
2022/06/26 04:50:17;;;;;;;0.20;0.20;;;;;;;19.87;62.41;100824.41;5183947;28;20072;-79
2022/06/26 04:52:49;;;;;;;0.35;0.35;;;;;;;19.86;62.68;100822.69;5182447;28;20033;-79
2022/06/26 04:55:20;;;;;;;0.30;0.30;;;;;;;19.89;61.59;100823.34;5183538;28;20108;-79
2022/06/26 04:57:50;;;;;;;0.68;0.68;;;;;;;19.88;61.48;100831.41;5183508;28;20129;-79
2022/06/26 05:00:21;;;;;;;0.98;0.98;;;;;;;19.72;64.91;100842.16;5200981;28;20043;-79
2022/06/26 05:02:51;;;;;;;0.40;0.40;;;;;;;19.80;62.42;100843.38;5194870;28;20752;-79
2022/06/26 05:05:22;;;;;;;0.65;0.60;;;;;;;19.85;62.01;100840.44;5189842;28;20045;-79
2022/06/26 05:07:52;;;;;;;0.30;0.30;;;;;;;19.80;63.69;100846.03;5189873;28;20108;-79
2022/06/26 05:10:24;;;;;;;0.20;0.20;;;;;;;19.79;62.15;100844.31;5210094;28;20195;-79
2022/06/26 05:12:54;;;;;;;0.20;0.20;;;;;;;19.76;61.94;100855.19;5187197;28;20040;-79
2022/06/26 05:15:25;;;;;;;0.35;0.35;;;;;;;19.75;64.04;100853.47;5182768;28;20041;-79
2022/06/26 05:17:56;;;;;;;0.40;0.40;;;;;;;19.71;63.04;100854.59;5190305;28;20071;-79
2022/06/26 05:20:26;;;;;;;0.70;0.70;;;;;;;19.73;62.19;100850.03;5200151;28;20045;-79
2022/06/26 05:22:57;;;;;;;0.30;0.30;;;;;;;19.77;61.89;100851.56;5187113;28;20032;-79
2022/06/26 05:25:27;;;;;;;0.75;0.75;;;;;;;19.70;63.86;100860.03;5182531;28;20100;-79
2022/06/26 05:27:58;;;;;;;0.95;0.95;;;;;;;19.75;63.17;100869.44;5227645;28;20032;-79
2022/06/26 05:30:29;;;;;;;0.40;0.40;;;;;;;19.75;63.37;100866.78;5214025;28;20123;-79
2022/06/26 05:33:07;;;;;;;0.30;0.30;;;;;;;19.71;63.85;100862.59;5204248;28;20119;-79
2022/06/26 05:35:38;;;;;;;0.20;0.20;;;;;;;19.77;62.21;100866.66;5182142;28;20064;-81
2022/06/26 05:38:12;;;;;;;0.30;0.30;;;;;;;19.84;61.95;100872.47;5199458;28;20037;-80
2022/06/26 05:40:42;;;;;;;0.30;0.30;;;;;;;19.88;62.34;100885.53;5202544;28;20041;-81
2022/06/26 05:43:13;;;;;;;0.20;0.20;;;;;;;19.79;62.50;100881.59;5186232;28;20044;-80
2022/06/26 05:45:43;;;;;;;0.40;0.40;;;;;;;19.84;62.11;100888.44;5202805;28;20033;-81
2022/06/26 05:48:14;;;;;;;1.02;0.63;;;;;;;19.89;61.76;100881.03;5216006;28;20041;-81
2022/06/26 05:50:45;;;;;;;0.25;0.25;;;;;;;19.85;61.69;100874.22;5186236;28;20445;-79
2022/06/26 05:53:19;;;;;;;0.20;0.20;;;;;;;19.85;61.37;100879.53;5219725;28;20039;-82
2022/06/26 05:55:50;;;;;;;0.20;0.20;;;;;;;19.88;62.05;100880.19;5200247;28;20037;-83
2022/06/26 05:58:23;;;;;;;0.20;0.20;;;;;;;19.89;61.37;100883.69;5203712;28;20512;-80
2022/06/26 06:00:54;;;;;;;0.32;0.32;;;;;;;19.75;63.43;100887.22;5205253;28;20037;-82
2022/06/26 06:03:25;;;;;;;0.20;0.20;;;;;;;19.80;62.11;100891.28;5186070;28;20555;-80
2022/06/26 06:05:59;;;;;;;0.30;0.30;;;;;;;19.87;61.55;100885.63;5189042;28;20623;-82
2022/06/26 06:08:29;;;;;;;0.20;0.20;;;;;;;19.79;61.99;100880.75;5181151;28;20362;-81
2022/06/26 06:11:00;;;;;;;1.17;0.82;;;;;;;19.82;61.79;100892.06;5200597;28;20044;-82
2022/06/26 06:13:30;;;;;;;0.20;0.20;;;;;;;19.64;62.43;100898.53;5191429;28;20039;-83
2022/06/26 06:16:01;;;;;;;0.20;0.20;;;;;;;19.70;62.34;100908.81;5205588;28;20039;-80
2022/06/26 06:18:34;;;;;;;;;;;;;;;19.73;61.98;100908.59;5184025;28;20137;-79
2022/06/26 06:21:04;;;;;;;0.50;0.50;;;;;;;19.76;62.22;100921.72;5186071;28;19951;-79
2022/06/26 06:23:38;;;;;;;0.20;0.20;;;;;;;19.68;62.78;100921.34;5217664;28;20102;-79
2022/06/26 06:26:10;;;;;;;1.45;0.82;;;;;;;19.74;62.51;100920.97;5200497;28;20041;-79
2022/06/26 06:28:40;;;;;;;0.47;0.47;;;;;;;19.79;62.29;100915.34;5210129;28;20041;-79
2022/06/26 06:31:11;;;;;;;0.57;0.57;;;;;;;19.74;62.36;100931.63;5207642;28;20049;-79
2022/06/26 06:33:47;;;;;;;0.30;0.30;;;;;;;19.82;61.78;100939.13;5207708;28;20021;-79
2022/06/26 06:36:18;;;;;;;0.32;0.32;;;;;;;19.84;61.34;100949.69;5192646;28;20045;-79
2022/06/26 06:38:48;;;;;;;0.75;0.75;;;;;;;19.85;61.45;100941.63;5218008;28;20098;-79
2022/06/26 06:41:19;;;;;;;0.40;0.40;;;;;;;19.88;61.48;100940.56;5210156;28;20651;-80
2022/06/26 06:43:49;;;;;;;1.75;0.55;;;;;;;19.87;61.04;100946.88;5197332;28;20029;-80
2022/06/26 06:46:20;;;;;;;0.20;0.20;;;;;;;19.75;61.98;100969.75;5194555;28;20100;-80
2022/06/26 06:48:53;;;;;;;0.30;0.30;;;;;;;19.83;60.93;100967.47;5207054;28;20037;-79
2022/06/26 06:51:26;;;;;;;0.60;0.43;;;;;;;19.81;60.83;100970.22;5207283;28;20097;-80
2022/06/26 06:54:00;;;;;;;0.55;0.55;;;;;;;19.82;61.40;100968.41;5195268;28;20112;-80
2022/06/26 06:56:31;;;;;;;0.20;0.20;;;;;;;19.88;60.93;100969.84;5221186;28;20120;-80
2022/06/26 06:59:14;;;;;;;0.40;0.40;;;;;;;19.93;60.46;100973.09;5186015;28;20578;-77
2022/06/26 07:01:44;;;;;;;0.30;0.30;;;;;;;19.98;60.08;100971.00;5173788;28;20115;-78
2022/06/26 07:04:18;;;;;;;0.38;0.38;;;;;;;19.97;60.38;100964.81;5194761;28;20048;-80
2022/06/26 07:06:52;;;;;;;1.15;1.05;;;;;;;19.96;60.29;100959.56;5213376;28;20037;-79
2022/06/26 07:09:25;;;;;;;0.98;0.90;;;;;;;20.05;60.04;100956.34;5181880;28;20191;-79
2022/06/26 07:11:56;;;;;;;0.40;0.40;;;;;;;20.03;59.90;100968.91;5195733;28;20040;-79
2022/06/26 07:14:26;;;;;;;0.40;0.40;;;;;;;20.11;59.59;100965.75;5202427;28;20028;-78
2022/06/26 07:17:00;;;;;;;0.20;0.20;;;;;;;20.13;59.56;100966.50;5192268;28;20025;-79
2022/06/26 07:19:30;;;;;;;0.30;0.30;;;;;;;20.06;59.05;100975.84;5191387;28;20037;-78
2022/06/26 07:22:01;;;;;;;0.50;0.50;;;;;;;19.99;59.37;100961.22;5196914;28;20051;-79
2022/06/26 07:24:32;;;;;;;0.52;0.40;;;;;;;19.93;59.91;100963.28;5203762;28;20170;-78
2022/06/26 07:27:06;;;;;;;0.60;0.60;;;;;;;20.01;59.33;100965.50;5191920;28;20040;-78
2022/06/26 07:29:38;;;;;;;0.20;0.20;;;;;;;20.01;59.44;100977.94;5187354;28;20044;-78
2022/06/26 07:32:11;;;;;;;0.40;0.40;;;;;;;20.09;59.12;100979.19;5185467;28;20041;-78
2022/06/26 07:34:42;;;;;;;0.20;0.20;;;;;;;20.13;58.86;100994.00;5220621;28;20044;-78
2022/06/26 07:37:16;;;;;;;0.32;0.32;;;;;;;20.16;58.63;101006.28;5177299;28;20462;-78
2022/06/26 07:39:46;;;;;;;0.20;0.20;;;;;;;20.21;58.24;101011.28;5190542;28;20092;-78
2022/06/26 07:42:17;;;;;;;0.20;0.20;;;;;;;20.24;58.58;101011.13;5202203;28;20039;-79
2022/06/26 07:44:48;;;;;;;0.20;0.20;;;;;;;20.27;58.54;101016.25;5187625;28;20144;-79
2022/06/26 07:47:18;;;;;;;0.20;0.20;;;;;;;20.19;58.14;101021.22;5167432;28;20025;-79
2022/06/26 07:49:54;;;;;;;0.60;0.60;;;;;;;20.22;58.21;101015.69;5186543;28;20029;-79
2022/06/26 07:52:40;;;;;;;0.20;0.20;;;;;;;20.23;58.18;101028.94;5181592;28;20033;-80
2022/06/26 07:55:10;;;;;;;0.30;0.30;;;;;;;20.19;58.71;101031.88;5186074;28;20045;-79
2022/06/26 07:57:44;;;;;;;0.98;0.57;;;;;;;20.03;59.09;101037.28;5198036;28;20031;-79
2022/06/26 08:00:15;;;;;;;0.20;0.20;;;;;;;20.08;58.24;101037.88;5186356;28;20045;-79
2022/06/26 08:02:45;;;;;;;0.40;0.40;;;;;;;20.07;58.21;101038.81;5208353;28;20195;-79
2022/06/26 08:05:19;;;;;;;0.50;0.50;;;;;;;20.20;58.08;101029.09;5193626;28;20047;-79
2022/06/26 08:07:49;;;;;;;0.30;0.30;;;;;;;20.25;58.56;101037.66;5219508;28;20033;-79
2022/06/26 08:10:23;;;;;;;0.52;0.52;;;;;;;20.26;58.27;101039.38;5219460;28;20055;-79
2022/06/26 08:12:55;;;;;;;0.40;0.40;;;;;;;20.15;57.64;101031.22;5184836;28;20642;-80
2022/06/26 08:15:26;;;;;;;0.53;0.37;;;;;;;20.30;57.84;101018.72;5182166;28;20041;-80
2022/06/26 08:17:56;;;;;;;0.20;0.20;;;;;;;20.41;56.97;101029.56;5202135;28;20048;-80
2022/06/26 08:20:28;;;;;;;0.20;0.20;;;;;;;20.37;56.90;101030.69;5199673;28;20634;-79
2022/06/26 08:22:58;;;;;;;0.50;0.50;;;;;;;20.50;57.13;101020.09;5198708;28;20025;-80
2022/06/26 08:25:29;;;;;;;0.22;0.22;;;;;;;20.56;57.37;101018.84;5183152;28;20491;-79
2022/06/26 08:28:00;;;;;;;0.40;0.40;;;;;;;20.55;56.12;101022.47;5187956;28;20025;-79
2022/06/26 08:30:31;;;;;;;0.50;0.47;;;;;;;20.68;57.10;101027.88;5199994;28;20039;-80
2022/06/26 08:33:08;;;;;;;0.25;0.25;;;;;;;20.72;56.59;101026.72;5179375;28;20055;-79
2022/06/26 08:35:39;;;;;;;0.30;0.30;;;;;;;20.79;56.60;101019.19;5200454;28;20068;-80
2022/06/26 08:38:10;;;;;;;1.02;1.00;;;;;;;20.80;55.39;101023.56;5201650;28;20056;-80
2022/06/26 08:40:42;;;;;;;0.17;0.17;;;;;;;20.86;56.26;101023.19;5183576;28;20048;-80
2022/06/26 08:43:21;;;;;;;0.22;0.22;;;;;;;21.02;55.44;101021.22;5189439;28;20048;-79
2022/06/26 08:45:53;;;;;;;2.60;0.70;;;;;;;21.06;55.36;101028.06;5184808;28;20109;-80
2022/06/26 08:48:26;;;;;;;0.30;0.30;;;;;;;21.12;54.64;101026.78;5192429;28;20110;-80
2022/06/26 08:50:59;;;;;;;0.45;0.45;;;;;;;20.85;53.88;101030.31;5193355;28;20267;-80
2022/06/26 08:53:30;;;;;;;0.50;0.50;;;;;;;20.94;54.35;101031.53;5198407;28;20448;-80
2022/06/26 08:56:02;;;;;;;0.20;0.20;;;;;;;21.02;55.40;101034.56;5200273;28;20040;-80
2022/06/26 08:58:33;;;;;;;0.30;0.30;;;;;;;21.01;54.60;101024.84;5207483;28;20047;-79
2022/06/26 09:01:08;;;;;;;0.28;0.28;;;;;;;21.16;53.98;101011.44;5220574;28;20736;-79
2022/06/26 09:03:43;;;;;;;0.20;0.20;;;;;;;21.23;54.25;101018.06;5200235;28;20036;-80
2022/06/26 09:06:13;;;;;;;0.22;0.22;;;;;;;21.23;53.70;101015.38;5202368;28;20119;-79
2022/06/26 09:08:48;;;;;;;0.25;0.25;;;;;;;21.23;53.27;101034.06;5209697;28;20013;-79
2022/06/26 09:11:19;;;;;;;0.60;0.60;;;;;;;21.30;53.38;101032.69;5190307;28;20512;-79
2022/06/26 09:13:53;;;;;;;0.85;0.85;;;;;;;21.46;53.83;101047.66;5172878;28;20029;-79
2022/06/26 09:16:33;;;;;;;0.20;0.20;;;;;;;21.56;53.53;101042.56;5204413;28;20044;-79
2022/06/26 09:19:07;;;;;;;0.20;0.20;;;;;;;21.53;53.05;101052.50;5188317;28;20523;-79
2022/06/26 09:21:39;;;;;;;0.43;0.43;;;;;;;21.58;52.68;101054.88;5190468;28;20055;-79
2022/06/26 09:24:15;;;;;;;0.38;0.38;;;;;;;21.67;52.67;101058.72;5202808;28;20087;-79
2022/06/26 09:27:02;;;;;;;0.35;0.35;;;;;;;21.56;50.32;101056.75;5193570;28;20040;-79
2022/06/26 09:29:33;;;;;;;0.20;0.20;;;;;;;21.58;50.22;101048.66;5205505;28;20061;-79
2022/06/26 09:32:23;;;;;;;0.70;0.50;;;;;;;21.55;51.58;101055.03;5209948;28;20091;-79
2022/06/26 09:34:57;;;;;;;0.20;0.20;;;;;;;21.74;51.64;101053.81;5185522;28;20031;-79
2022/06/26 09:37:36;;;;;;;0.22;0.22;;;;;;;21.79;51.36;101044.53;5203866;28;20070;-79
2022/06/26 09:40:07;;;;;;;0.20;0.20;;;;;;;21.85;52.41;101044.09;5203211;28;20072;-79
2022/06/26 09:42:37;;;;;;;0.30;0.30;;;;;;;21.96;52.10;101048.69;5187728;28;20033;-80
2022/06/26 09:45:10;;;;;;;0.20;0.20;;;;;;;21.89;50.15;101047.41;5181101;28;20037;-80
2022/06/26 09:47:43;;;;;;;0.40;0.40;;;;;;;21.80;50.70;101056.06;5222787;28;20098;-79
2022/06/26 09:50:14;;;;;;;0.52;0.40;;;;;;;21.92;50.93;101052.56;5200539;28;20044;-79
2022/06/26 09:52:46;;;;;;;0.20;0.20;;;;;;;21.72;48.53;101055.75;5216226;28;20033;-81
2022/06/26 09:55:16;;;;;;;0.25;0.25;;;;;;;21.91;50.07;101050.84;5208228;28;20052;-80
2022/06/26 09:57:50;;;;;;;0.65;0.65;;;;;;;22.02;48.28;101058.94;5192749;28;20282;-80
2022/06/26 10:00:21;;;;;;;0.35;0.35;;;;;;;22.01;47.74;101059.94;5186199;28;20037;-80
2022/06/26 10:08:43;;;;;;;0.30;0.30;;;;;;;22.29;49.34;101062.44;5198411;28;20037;-80
2022/06/26 10:11:18;;;;;;;0.50;0.50;;;;;;;22.36;49.18;101058.38;5203036;28;20037;-80
2022/06/26 10:13:52;;;;;;;0.40;0.40;;;;;;;22.40;49.68;101069.72;5210296;28;20056;-79
2022/06/26 10:16:40;;;;;;;0.30;0.30;;;;;;;22.27;48.72;101067.03;5223672;28;20123;-80
2022/06/26 10:19:22;;;;;;;0.40;0.40;;;;;;;22.18;48.82;101073.91;5191512;28;20033;-80
2022/06/26 10:21:54;;;;;;;0.20;0.20;;;;;;;22.30;47.34;101078.38;5202946;28;20053;-80
2022/06/26 10:24:25;;;;;;;0.30;0.30;;;;;;;22.03;47.02;101078.50;5175738;28;20036;-80
2022/06/26 10:27:08;;;;;;;0.73;0.73;;;;;;;22.26;48.77;101078.69;5185838;28;20072;-80
2022/06/26 10:29:40;;;;;;;0.30;0.30;;;;;;;22.41;49.30;101080.31;5182045;28;20139;-81
2022/06/26 10:32:22;;;;;;;0.20;0.20;;;;;;;22.54;48.11;101074.94;5205143;28;20087;-80
2022/06/26 10:34:56;;;;;;;1.52;1.33;;;;;;;22.30;47.25;101069.50;5185857;28;20029;-80
2022/06/26 10:37:42;;;;;;;0.20;0.20;;;;;;;22.54;48.28;101069.59;5177177;28;20029;-81
2022/06/26 10:43:15;;;;;;;0.20;0.20;;;;;;;22.40;46.76;101069.72;5203286;28;20044;-81
2022/06/26 10:45:46;;;;;;;0.20;0.20;;;;;;;22.37;47.85;101072.59;5169828;28;20028;-79
2022/06/26 10:48:27;;;;;;;0.20;0.20;;;;;;;22.48;47.91;101070.03;5207185;28;20033;-80
2022/06/26 10:51:05;;;;;;;0.30;0.30;;;;;;;22.55;47.93;101070.47;5172412;28;20029;-80
2022/06/26 10:53:39;;;;;;;0.22;0.22;;;;;;;22.56;47.58;101066.81;5188145;28;20121;-80
2022/06/26 10:56:11;;;;;;;0.40;0.40;;;;;;;22.59;48.27;101072.81;5185650;28;20072;-80
2022/06/26 10:58:46;;;;;;;0.30;0.30;;;;;;;22.62;48.21;101077.91;5193430;28;20209;-79
2022/06/26 11:01:17;;;;;;;0.20;0.20;;;;;;;22.67;48.71;101074.91;5189516;28;20145;-81
2022/06/26 11:03:48;;;;;;;0.20;0.20;;;;;;;22.70;48.95;101081.84;5205272;28;20454;-79
2022/06/26 11:06:25;;;;;;;1.17;0.60;;;;;;;22.60;48.62;101084.34;5200037;28;20069;-80
2022/06/26 11:09:00;;;;;;;0.93;0.73;;;;;;;22.46;48.40;101094.22;5192739;28;20025;-80
2022/06/26 11:11:34;;;;;;;0.20;0.20;;;;;;;22.27;48.45;101096.44;5208714;28;20133;-80
2022/06/26 11:14:12;;;;;;;0.20;0.20;;;;;;;22.48;49.08;101092.25;5207331;28;20043;-81
2022/06/26 11:16:46;;;;;;;0.20;0.20;;;;;;;22.47;48.81;101095.94;5177009;28;20056;-80
2022/06/26 11:19:24;;;;;;;0.32;0.32;;;;;;;22.52;49.18;101100.91;5178231;28;20036;-80
2022/06/26 11:22:11;;;;;;;0.20;0.20;;;;;;;22.16;48.25;101099.88;5198914;28;20444;-80
2022/06/26 11:24:52;;;;;;;0.80;0.80;;;;;;;22.20;48.58;101100.53;5205802;28;20037;-80
2022/06/26 11:27:32;;;;;;;6.18;0.30;;;;;;;22.28;48.71;101107.03;5189641;28;20543;-80
2022/06/26 11:30:03;;;;;;;0.30;0.30;;;;;;;22.37;48.63;101094.84;5183962;28;20092;-80
2022/06/26 11:32:35;;;;;;;0.20;0.20;;;;;;;22.41;48.85;101095.50;5219689;28;20056;-79
2022/06/26 11:35:06;;;;;;;0.20;0.20;;;;;;;22.45;49.32;101096.97;5211610;28;20101;-80
2022/06/26 11:37:38;;;;;;;0.35;0.35;;;;;;;22.44;49.44;101097.94;5209586;28;20057;-81
2022/06/26 11:40:13;;;;;;;0.30;0.30;;;;;;;22.51;49.94;101088.53;5192671;28;20048;-81
2022/06/26 11:42:44;;;;;;;1.00;0.90;;;;;;;22.50;49.80;101089.50;5196571;28;20068;-81
2022/06/26 11:45:24;;;;;;;1.17;0.85;;;;;;;22.55;49.56;101081.16;5191234;28;20052;-81
2022/06/26 11:47:55;;;;;;;1.55;0.88;;;;;;;22.53;49.79;101080.41;5204217;28;20029;-78
2022/06/26 11:50:29;;;;;;;0.20;0.20;;;;;;;22.53;49.73;101075.88;5200655;28;20771;-80
2022/06/26 11:53:00;;;;;;;1.75;0.40;;;;;;;22.56;50.16;101070.34;5181171;28;20040;-81
2022/06/26 11:55:33;;;;;;;2.50;1.38;;;;;;;22.57;49.62;101069.38;5199524;28;20064;-79
2022/06/26 11:58:03;;;;;;;0.38;0.38;;;;;;;22.58;49.99;101070.22;5188474;28;20044;-79
2022/06/26 12:00:35;;;;;;;0.60;0.60;;;;;;;22.56;50.32;101066.81;5183591;28;20033;-79
2022/06/26 12:03:13;;;;;;;0.40;0.40;;;;;;;22.62;49.98;101080.56;5191606;28;20766;-80
2022/06/26 12:05:45;;;;;;;0.52;0.52;;;;;;;22.63;50.13;101079.63;5169185;28;20037;-80
2022/06/26 12:08:18;;;;;;;0.25;0.25;;;;;;;22.66;50.42;101083.88;5222335;28;20025;-80